createdAt,value
2018-08-30T00:02:16.289Z,19.30
2018-08-30T00:04:44.973Z,19.40
2018-08-30T00:07:14.430Z,19.40
2018-08-30T00:09:42.784Z,19.40
2018-08-30T00:12:11.344Z,19.40
2018-08-30T00:14:39.782Z,19.40
2018-08-30T00:17:08.170Z,19.40
2018-08-30T00:19:36.710Z,19.30
2018-08-30T00:22:05.304Z,19.30
2018-08-30T00:24:33.916Z,19.40
2018-08-30T00:27:02.462Z,19.30
2018-08-30T00:29:30.896Z,19.30
2018-08-30T00:31:59.547Z,19.30
2018-08-30T00:34:28.277Z,19.30
2018-08-30T00:36:56.883Z,19.20
2018-08-30T00:39:25.787Z,19.20
2018-08-30T00:41:54.320Z,19.20
2018-08-30T00:44:22.799Z,19.10
2018-08-30T00:46:51.313Z,19.00
2018-08-30T00:49:19.740Z,19.00
2018-08-30T00:51:48.258Z,18.90
2018-08-30T00:54:16.738Z,18.90
2018-08-30T00:56:45.464Z,18.80
2018-08-30T00:59:14.309Z,18.80
2018-08-30T01:01:42.965Z,18.70
2018-08-30T01:04:11.958Z,18.70
2018-08-30T01:06:40.334Z,18.60
2018-08-30T01:09:08.783Z,18.50
2018-08-30T01:11:37.436Z,18.60
2018-08-30T01:14:06.262Z,18.70
2018-08-30T01:16:34.999Z,18.70
2018-08-30T01:19:03.351Z,18.70
2018-08-30T01:21:31.868Z,18.70
2018-08-30T01:24:00.306Z,18.60
2018-08-30T01:26:28.853Z,18.60
2018-08-30T01:28:57.380Z,18.60
2018-08-30T01:31:25.957Z,18.50
2018-08-30T01:33:54.314Z,18.40
2018-08-30T01:36:22.754Z,18.30
2018-08-30T01:38:51.284Z,18.20
2018-08-30T01:41:19.718Z,18.10
2018-08-30T01:43:48.211Z,18.10
2018-08-30T01:46:16.941Z,18.10
2018-08-30T01:48:45.484Z,18.10
2018-08-30T01:51:15.678Z,18.10
2018-08-30T01:53:44.175Z,18.10
2018-08-30T01:56:12.778Z,18.20
2018-08-30T01:58:41.367Z,18.20
2018-08-30T02:01:09.735Z,18.20
2018-08-30T02:03:38.257Z,18.20
2018-08-30T02:06:06.853Z,18.20
2018-08-30T02:08:35.265Z,18.10
2018-08-30T02:11:03.744Z,18.10
2018-08-30T02:13:32.121Z,18.10
2018-08-30T02:16:00.662Z,18.10
2018-08-30T02:18:29.205Z,18.10
2018-08-30T02:20:57.815Z,18.00
2018-08-30T02:23:26.443Z,18.00
2018-08-30T02:25:55.014Z,18.00
2018-08-30T02:28:23.569Z,18.00
2018-08-30T02:30:51.974Z,18.00
2018-08-30T02:33:20.640Z,18.00
2018-08-30T02:35:49.344Z,18.00
2018-08-30T02:38:17.917Z,17.90
2018-08-30T02:40:46.358Z,17.80
2018-08-30T02:43:18.123Z,17.80
2018-08-30T02:45:46.704Z,17.80
2018-08-30T02:48:15.882Z,17.80
2018-08-30T02:50:44.498Z,17.80
2018-08-30T02:53:13.891Z,17.80
2018-08-30T02:55:42.304Z,17.80
2018-08-30T02:58:10.994Z,17.80
2018-08-30T03:00:39.477Z,17.80
2018-08-30T03:03:08.132Z,17.80
2018-08-30T03:05:37.122Z,17.80
2018-08-30T03:08:06.045Z,17.90
2018-08-30T03:10:34.659Z,17.80
2018-08-30T03:13:03.090Z,17.80
2018-08-30T03:15:31.480Z,17.80
2018-08-30T03:17:59.826Z,17.80
2018-08-30T03:20:28.384Z,17.90
2018-08-30T03:22:57.108Z,17.80
2018-08-30T03:25:26.623Z,17.80
2018-08-30T03:27:55.050Z,17.80
2018-08-30T03:30:25.696Z,17.80
2018-08-30T03:32:56.823Z,17.80
2018-08-30T03:35:26.334Z,17.70
2018-08-30T03:37:54.948Z,17.70
2018-08-30T03:40:23.518Z,17.60
2018-08-30T03:42:51.859Z,17.60
2018-08-30T03:45:20.380Z,17.50
2018-08-30T03:47:51.570Z,17.60
2018-08-30T03:50:20.495Z,17.60
2018-08-30T03:52:49.014Z,17.60
2018-08-30T03:55:19.350Z,17.50
2018-08-30T03:57:48.135Z,17.50
2018-08-30T04:00:17.270Z,17.50
2018-08-30T04:02:45.862Z,17.50
2018-08-30T04:05:16.082Z,17.50
2018-08-30T04:07:44.614Z,17.50
2018-08-30T04:10:13.515Z,17.50
2018-08-30T04:12:42.085Z,17.50
2018-08-30T04:15:12.199Z,17.50
2018-08-30T04:17:40.649Z,17.50
2018-08-30T04:20:09.094Z,17.50
2018-08-30T04:22:37.634Z,17.40
2018-08-30T04:25:06.282Z,17.40
2018-08-30T04:27:34.985Z,17.40
2018-08-30T04:30:03.633Z,17.40
2018-08-30T04:32:32.512Z,17.40
2018-08-30T04:35:01.172Z,17.40
2018-08-30T04:37:29.543Z,17.40
2018-08-30T04:39:58.166Z,17.40
2018-08-30T04:42:26.878Z,17.40
2018-08-30T04:44:55.470Z,17.30
2018-08-30T04:47:24.361Z,17.40
2018-08-30T04:49:52.879Z,17.40
2018-08-30T04:52:21.386Z,17.40
2018-08-30T04:54:49.760Z,17.40
2018-08-30T04:57:18.241Z,17.40
2018-08-30T04:59:46.686Z,17.40
2018-08-30T05:02:17.950Z,17.30
2018-08-30T05:04:46.339Z,17.30
2018-08-30T05:07:14.799Z,17.30
2018-08-30T05:09:43.314Z,17.20
2018-08-30T05:12:11.697Z,17.20
2018-08-30T05:14:40.030Z,17.30
2018-08-30T05:17:08.974Z,17.30
2018-08-30T05:19:37.616Z,17.30
2018-08-30T05:22:06.286Z,17.30
2018-08-30T05:24:34.986Z,17.30
2018-08-30T05:27:03.504Z,17.30
2018-08-30T05:29:31.951Z,17.30
2018-08-30T05:32:00.309Z,17.30
2018-08-30T05:34:29.683Z,17.30
2018-08-30T05:36:58.153Z,17.20
2018-08-30T05:39:26.800Z,17.20
2018-08-30T05:41:55.784Z,17.20
2018-08-30T05:44:24.119Z,17.20
2018-08-30T05:46:52.526Z,17.30
2018-08-30T05:49:20.898Z,17.30
2018-08-30T05:51:49.464Z,17.40
2018-08-30T05:54:17.947Z,17.40
2018-08-30T05:56:46.691Z,17.40
2018-08-30T05:59:15.465Z,17.50
2018-08-30T06:01:44.019Z,17.60
2018-08-30T06:04:12.467Z,17.70
2018-08-30T06:06:40.866Z,17.80
2018-08-30T06:09:09.652Z,17.80
2018-08-30T06:11:38.008Z,17.90
2018-08-30T06:14:06.644Z,17.90
2018-08-30T06:16:35.000Z,18.00
2018-08-30T06:19:03.701Z,18.00
2018-08-30T06:21:32.062Z,18.00
2018-08-30T06:24:00.946Z,18.00
2018-08-30T06:26:29.391Z,18.00
2018-08-30T06:28:58.503Z,18.10
2018-08-30T06:31:26.953Z,18.10
2018-08-30T06:33:55.463Z,18.10
2018-08-30T06:36:23.908Z,18.10
2018-08-30T06:38:52.512Z,18.20
2018-08-30T06:41:20.923Z,18.30
2018-08-30T06:43:49.392Z,18.40
2018-08-30T06:46:17.943Z,18.50
2018-08-30T06:48:46.423Z,18.50
2018-08-30T06:51:15.050Z,18.40
2018-08-30T06:53:43.536Z,18.30
2018-08-30T06:56:12.063Z,18.30
2018-08-30T06:58:40.478Z,18.20
2018-08-30T07:01:09.513Z,18.30
2018-08-30T07:03:37.929Z,18.40
2018-08-30T07:06:06.595Z,18.60
2018-08-30T07:08:36.350Z,18.90
2018-08-30T07:11:04.978Z,19.00
2018-08-30T07:13:33.422Z,19.10
2018-08-30T07:16:01.906Z,19.20
2018-08-30T07:18:30.313Z,19.30
2018-08-30T07:20:58.859Z,19.40
2018-08-30T07:23:27.437Z,19.50
2018-08-30T07:25:56.284Z,19.40
2018-08-30T07:28:25.541Z,19.30
2018-08-30T07:30:53.971Z,19.10
2018-08-30T07:33:22.610Z,19.00
2018-08-30T07:35:51.378Z,18.80
2018-08-30T07:38:19.915Z,18.70
2018-08-30T07:40:48.318Z,18.60
2018-08-30T07:43:16.745Z,18.70
2018-08-30T07:45:45.881Z,18.90
2018-08-30T07:48:14.399Z,19.00
2018-08-30T07:50:42.906Z,19.20
2018-08-30T07:53:11.771Z,19.30
2018-08-30T07:55:40.171Z,19.40
2018-08-30T07:58:09.294Z,19.30
2018-08-30T08:00:37.874Z,19.40
2018-08-30T08:03:06.488Z,19.20
2018-08-30T08:05:35.143Z,19.20
2018-08-30T08:08:03.642Z,19.10
2018-08-30T08:10:32.032Z,19.10
2018-08-30T08:13:00.797Z,19.10
2018-08-30T08:15:29.438Z,19.10
2018-08-30T08:17:57.933Z,19.00
2018-08-30T08:20:26.389Z,19.00
2018-08-30T08:22:54.782Z,18.90
2018-08-30T08:25:23.427Z,18.90
2018-08-30T08:27:51.814Z,18.90
2018-08-30T08:30:20.245Z,19.20
2018-08-30T08:32:48.578Z,19.60
2018-08-30T08:35:16.970Z,20.10
2018-08-30T08:37:45.400Z,20.60
2018-08-30T08:40:15.536Z,21.30
2018-08-30T08:42:44.025Z,22.60
2018-08-30T08:45:13.198Z,23.90
2018-08-30T08:47:42.501Z,24.60
2018-08-30T08:50:12.207Z,24.30
2018-08-30T08:52:40.562Z,24.10
2018-08-30T08:55:10.544Z,24.00
2018-08-30T08:57:39.463Z,23.60
2018-08-30T09:00:08.216Z,22.90
2018-08-30T09:02:36.838Z,22.40
2018-08-30T09:05:05.775Z,22.00
2018-08-30T09:07:34.113Z,22.00
2018-08-30T09:10:02.472Z,22.00
2018-08-30T09:12:30.810Z,21.80
2018-08-30T09:14:59.200Z,21.70
2018-08-30T09:17:27.605Z,21.50
2018-08-30T09:19:55.950Z,21.20
2018-08-30T09:22:24.321Z,21.00
2018-08-30T09:24:52.695Z,20.70
2018-08-30T09:27:21.036Z,20.40
2018-08-30T09:29:49.470Z,20.10
2018-08-30T09:32:18.547Z,19.90
2018-08-30T09:34:47.146Z,19.70
2018-08-30T09:37:16.787Z,19.70
2018-08-30T09:39:47.227Z,19.90
2018-08-30T09:42:16.067Z,20.20
2018-08-30T09:44:44.454Z,20.80
2018-08-30T09:47:12.864Z,21.40
2018-08-30T09:49:41.236Z,21.90
2018-08-30T09:52:09.921Z,22.00
2018-08-30T09:54:38.486Z,21.80
2018-08-30T09:57:07.774Z,21.70
2018-08-30T09:59:36.795Z,21.80
2018-08-30T10:02:11.619Z,21.90
2018-08-30T10:04:41.345Z,22.30
2018-08-30T10:07:13.352Z,22.50
2018-08-30T10:09:43.572Z,22.50
2018-08-30T10:12:14.636Z,22.20
2018-08-30T10:14:43.083Z,22.20
2018-08-30T10:17:12.460Z,22.30
2018-08-30T10:19:40.845Z,22.50
2018-08-30T10:22:09.450Z,22.70
2018-08-30T10:24:37.966Z,22.90
2018-08-30T10:27:06.473Z,23.40
2018-08-30T10:29:34.988Z,23.60
2018-08-30T10:32:03.457Z,23.80
2018-08-30T10:34:31.807Z,23.90
2018-08-30T10:37:00.218Z,23.80
2018-08-30T10:39:28.604Z,23.50
2018-08-30T10:41:57.042Z,23.30
2018-08-30T10:44:25.466Z,23.10
2018-08-30T10:46:53.808Z,22.80
2018-08-30T10:49:22.149Z,22.30
2018-08-30T10:51:50.495Z,21.90
2018-08-30T10:54:18.875Z,21.50
2018-08-30T10:56:47.420Z,21.20
2018-08-30T10:59:16.091Z,21.00
2018-08-30T11:01:44.589Z,20.80
2018-08-30T11:04:13.131Z,20.80
2018-08-30T11:06:41.582Z,20.90
2018-08-30T11:09:11.011Z,21.20
2018-08-30T11:11:39.388Z,21.70
2018-08-30T11:14:08.575Z,22.10
2018-08-30T11:16:37.074Z,22.20
2018-08-30T11:19:06.430Z,22.30
2018-08-30T11:21:34.989Z,22.20
2018-08-30T11:24:03.376Z,22.40
2018-08-30T11:26:31.851Z,22.30
2018-08-30T11:29:00.247Z,22.20
2018-08-30T11:31:28.862Z,22.40
2018-08-30T11:33:57.619Z,22.50
2018-08-30T11:36:26.852Z,22.70
2018-08-30T11:38:56.747Z,22.80
2018-08-30T11:41:25.913Z,23.10
2018-08-30T11:43:54.690Z,23.30
2018-08-30T11:46:23.211Z,23.20
2018-08-30T11:48:51.590Z,23.10
2018-08-30T11:51:21.788Z,22.90
2018-08-30T11:53:50.554Z,22.90
2018-08-30T11:56:19.301Z,22.90
2018-08-30T11:58:47.847Z,22.70
2018-08-30T12:01:16.357Z,22.80
2018-08-30T12:03:46.295Z,23.00
2018-08-30T12:06:14.688Z,23.20
2018-08-30T12:08:43.481Z,23.40
2018-08-30T12:11:11.965Z,23.60
2018-08-30T12:13:40.262Z,23.60
2018-08-30T12:16:09.107Z,23.60
2018-08-30T12:18:37.640Z,23.60
2018-08-30T12:21:06.382Z,23.70
2018-08-30T12:23:34.955Z,23.80
2018-08-30T12:26:03.366Z,23.80
2018-08-30T12:28:31.886Z,23.70
2018-08-30T12:31:01.146Z,23.80
2018-08-30T12:33:29.543Z,24.00
2018-08-30T12:35:58.266Z,24.20
2018-08-30T12:38:26.714Z,24.70
2018-08-30T12:40:55.093Z,25.00
2018-08-30T12:43:23.504Z,25.20
2018-08-30T12:45:51.864Z,25.30
2018-08-30T12:48:20.221Z,25.30
2018-08-30T12:50:48.718Z,25.30
2018-08-30T12:53:17.670Z,25.20
2018-08-30T12:55:46.101Z,25.10
2018-08-30T12:58:15.466Z,24.70
2018-08-30T13:00:43.657Z,24.40
2018-08-30T13:03:12.074Z,24.00
2018-08-30T13:05:40.630Z,23.60
2018-08-30T13:08:09.864Z,23.30
2018-08-30T13:10:38.297Z,23.00
2018-08-30T13:13:07.821Z,22.80
2018-08-30T13:15:36.404Z,22.50
2018-08-30T13:18:04.817Z,22.40
2018-08-30T13:20:33.349Z,22.40
2018-08-30T13:23:01.898Z,22.50
2018-08-30T13:25:30.077Z,22.60
2018-08-30T13:27:58.562Z,22.50
2018-08-30T13:30:27.438Z,22.50
2018-08-30T13:32:56.060Z,22.60
2018-08-30T13:35:24.404Z,22.60
2018-08-30T13:37:52.913Z,22.70
2018-08-30T13:40:21.379Z,22.70
2018-08-30T13:42:49.529Z,22.80
2018-08-30T13:45:18.042Z,22.80
2018-08-30T13:47:46.318Z,22.80
2018-08-30T13:50:14.734Z,22.80
2018-08-30T13:52:44.043Z,22.90
2018-08-30T13:55:12.440Z,23.10
2018-08-30T13:57:41.100Z,23.20
2018-08-30T14:00:10.587Z,23.50
2018-08-30T14:02:38.710Z,23.60
2018-08-30T14:05:08.243Z,23.70
2018-08-30T14:07:36.587Z,23.90
2018-08-30T14:10:05.354Z,23.90
2018-08-30T14:12:33.669Z,24.10
2018-08-30T14:15:02.365Z,24.20
2018-08-30T14:17:30.260Z,24.00
2018-08-30T14:19:58.727Z,23.90
2018-08-30T14:22:27.227Z,23.80
2018-08-30T14:24:55.847Z,23.70
2018-08-30T14:27:24.571Z,23.70
2018-08-30T14:29:52.939Z,23.70
2018-08-30T14:32:21.354Z,23.70
2018-08-30T14:34:49.869Z,23.80
2018-08-30T14:37:18.291Z,23.70
2018-08-30T14:39:47.127Z,23.70
2018-08-30T14:42:15.601Z,23.40
2018-08-30T14:44:44.104Z,23.10
2018-08-30T14:47:12.751Z,23.00
2018-08-30T14:49:41.141Z,22.70
2018-08-30T14:52:10.220Z,22.40
2018-08-30T14:54:39.787Z,22.40
2018-08-30T14:57:08.681Z,22.30
2018-08-30T14:59:37.387Z,22.30
2018-08-30T15:02:05.929Z,22.20
2018-08-30T15:04:34.234Z,22.10
2018-08-30T15:07:02.580Z,22.10
2018-08-30T15:09:30.982Z,22.10
2018-08-30T15:11:59.358Z,22.20
2018-08-30T15:14:27.915Z,22.20
2018-08-30T15:16:56.383Z,22.20
2018-08-30T15:19:25.009Z,22.10
2018-08-30T15:21:53.410Z,22.10
2018-08-30T15:24:21.930Z,22.10
2018-08-30T15:26:50.371Z,22.00
2018-08-30T15:29:19.023Z,21.90
2018-08-30T15:31:47.425Z,21.70
2018-08-30T15:34:15.907Z,21.70
2018-08-30T15:36:44.371Z,21.80
2018-08-30T15:39:12.787Z,21.90
2018-08-30T15:41:41.183Z,21.90
2018-08-30T15:44:09.665Z,21.90
2018-08-30T15:46:38.350Z,21.80
2018-08-30T15:49:07.550Z,21.80
2018-08-30T15:51:35.895Z,21.80
2018-08-30T15:54:04.361Z,21.90
2018-08-30T15:56:32.728Z,21.80
2018-08-30T15:59:01.155Z,21.70
2018-08-30T16:01:29.470Z,21.70
2018-08-30T16:03:57.841Z,21.80
2018-08-30T16:06:26.394Z,21.80
2018-08-30T16:08:55.008Z,21.80
2018-08-30T16:11:23.411Z,21.80
2018-08-30T16:13:51.774Z,21.70
2018-08-30T16:16:20.312Z,21.70
2018-08-30T16:18:49.184Z,21.70
2018-08-30T16:21:18.103Z,21.80
2018-08-30T16:23:46.708Z,21.70
2018-08-30T16:26:15.176Z,21.70
2018-08-30T16:28:43.528Z,21.70
2018-08-30T16:31:11.940Z,21.60
2018-08-30T16:33:40.696Z,21.60
2018-08-30T16:36:09.361Z,21.60
2018-08-30T16:38:38.399Z,21.50
2018-08-30T16:41:07.253Z,21.50
2018-08-30T16:43:35.920Z,21.50
2018-08-30T16:46:04.312Z,21.40
2018-08-30T16:48:32.873Z,21.50
2018-08-30T16:51:01.240Z,21.50
2018-08-30T16:53:29.640Z,21.40
2018-08-30T16:55:58.035Z,21.30
2018-08-30T16:58:26.706Z,21.30
2018-08-30T17:00:55.472Z,21.10
2018-08-30T17:03:23.839Z,20.90
2018-08-30T17:05:52.238Z,20.90
2018-08-30T17:08:20.617Z,20.80
2018-08-30T17:10:49.074Z,20.70
2018-08-30T17:13:17.670Z,20.70
2018-08-30T17:15:46.364Z,20.80
2018-08-30T17:18:14.740Z,20.70
2018-08-30T17:20:47.548Z,20.70
2018-08-30T17:23:16.030Z,20.70
2018-08-30T17:25:44.773Z,20.70
2018-08-30T17:28:13.592Z,20.60
2018-08-30T17:30:42.213Z,20.60
2018-08-30T17:33:11.093Z,20.50
2018-08-30T17:35:40.098Z,20.50
2018-08-30T17:38:09.234Z,20.50
2018-08-30T17:40:37.813Z,20.40
2018-08-30T17:43:06.806Z,20.30
2018-08-30T17:45:35.765Z,20.30
2018-08-30T17:48:03.793Z,20.30
2018-08-30T17:50:32.513Z,20.20
2018-08-30T17:53:00.750Z,20.20
2018-08-30T17:55:29.196Z,20.20
2018-08-30T17:57:57.664Z,20.10
2018-08-30T18:00:26.226Z,20.00
2018-08-30T18:02:54.570Z,20.00
2018-08-30T18:05:22.978Z,19.90
2018-08-30T18:07:51.370Z,19.80
2018-08-30T18:10:19.791Z,19.70
2018-08-30T18:12:48.491Z,19.70
2018-08-30T18:15:17.057Z,19.60
2018-08-30T18:17:46.318Z,19.60
2018-08-30T18:20:14.952Z,19.50
2018-08-30T18:22:43.323Z,19.50
2018-08-30T18:25:12.402Z,19.50
2018-08-30T18:27:40.710Z,19.40
2018-08-30T18:30:11.044Z,19.40
2018-08-30T18:32:39.430Z,19.30
2018-08-30T18:35:10.424Z,19.30
2018-08-30T18:37:39.262Z,19.20
2018-08-30T18:40:09.877Z,19.20
2018-08-30T18:42:38.621Z,19.20
2018-08-30T18:45:08.035Z,19.20
2018-08-30T18:47:37.127Z,19.20
2018-08-30T18:50:05.804Z,19.20
2018-08-30T18:52:34.606Z,19.10
2018-08-30T18:55:03.053Z,19.10
2018-08-30T18:57:31.422Z,19.00
2018-08-30T18:59:59.798Z,19.00
2018-08-30T19:02:28.154Z,19.00
2018-08-30T19:04:56.729Z,18.90
2018-08-30T19:09:55.896Z,18.90
2018-08-30T19:12:27.167Z,18.70
2018-08-30T19:14:55.781Z,18.70
2018-08-30T19:17:29.439Z,18.60
2018-08-30T19:19:58.204Z,18.50
2018-08-30T19:22:27.333Z,18.50
2018-08-30T19:25:01.030Z,18.40
2018-08-30T19:27:29.478Z,18.30
2018-08-30T19:30:03.394Z,18.30
2018-08-30T19:32:31.825Z,18.30
2018-08-30T19:35:05.791Z,18.20
2018-08-30T19:37:34.148Z,18.10
2018-08-30T19:40:02.509Z,18.10
2018-08-30T19:42:31.038Z,18.00
2018-08-30T19:44:59.391Z,18.00
2018-08-30T19:47:29.624Z,17.90
2018-08-30T19:49:58.301Z,17.80
2018-08-30T19:52:26.991Z,17.80
2018-08-30T19:54:55.624Z,17.80
2018-08-30T19:57:23.928Z,17.80
2018-08-30T19:59:52.432Z,17.70
2018-08-30T20:02:21.440Z,17.60
2018-08-30T20:04:49.793Z,17.60
2018-08-30T20:07:18.170Z,17.60
2018-08-30T20:09:46.780Z,17.50
2018-08-30T20:12:15.815Z,17.50
2018-08-30T20:14:44.342Z,17.50
2018-08-30T20:17:13.902Z,17.50
2018-08-30T20:19:42.751Z,17.40
2018-08-30T20:22:13.748Z,17.40
2018-08-30T20:24:43.538Z,17.40
2018-08-30T20:27:12.069Z,17.40
2018-08-30T20:29:40.407Z,17.40
2018-08-30T20:32:08.747Z,17.40
2018-08-30T20:34:37.358Z,17.30
2018-08-30T20:37:05.870Z,17.30
2018-08-30T20:39:34.258Z,17.30
2018-08-30T20:42:02.685Z,17.30
2018-08-30T20:44:31.014Z,17.20
2018-08-30T20:46:59.674Z,17.20
2018-08-30T20:49:28.206Z,17.20
2018-08-30T20:51:56.754Z,17.10
2018-08-30T20:54:25.547Z,17.00
2018-08-30T20:56:54.022Z,16.90
2018-08-30T20:59:22.606Z,16.90
2018-08-30T21:01:51.068Z,16.90
2018-08-30T21:04:19.668Z,16.90
2018-08-30T21:06:48.426Z,16.80
2018-08-30T21:09:17.010Z,16.70
2018-08-30T21:11:45.867Z,16.70
2018-08-30T21:14:14.984Z,16.70
2018-08-30T21:16:43.354Z,16.70
2018-08-30T21:19:12.724Z,16.70
2018-08-30T21:21:41.125Z,16.60
2018-08-30T21:24:09.577Z,16.60
2018-08-30T21:26:38.295Z,16.60
2018-08-30T21:29:06.845Z,16.60
2018-08-30T21:31:35.261Z,16.50
2018-08-30T21:34:03.797Z,16.50
2018-08-30T21:36:32.153Z,16.50
2018-08-30T21:39:00.583Z,16.40
2018-08-30T21:41:28.956Z,16.40
2018-08-30T21:43:57.558Z,16.40
2018-08-30T21:46:26.517Z,16.40
2018-08-30T21:48:54.992Z,16.40
2018-08-30T21:51:23.450Z,16.30
2018-08-30T21:53:52.027Z,16.20
2018-08-30T21:56:20.445Z,16.20
2018-08-30T21:58:48.819Z,16.20
2018-08-30T22:01:17.378Z,16.20
2018-08-30T22:03:45.900Z,16.20
2018-08-30T22:06:14.992Z,16.20
2018-08-30T22:08:43.776Z,16.20
2018-08-30T22:11:12.975Z,16.10
2018-08-30T22:13:41.632Z,16.20
2018-08-30T22:16:10.385Z,16.20
2018-08-30T22:18:38.790Z,16.20
2018-08-30T22:21:07.413Z,16.20
2018-08-30T22:23:35.887Z,16.20
2018-08-30T22:26:04.289Z,16.20
2018-08-30T22:28:32.684Z,16.20
2018-08-30T22:31:01.025Z,16.20
2018-08-30T22:33:29.467Z,16.20
2018-08-30T22:35:58.227Z,16.20
2018-08-30T22:38:26.809Z,16.20
2018-08-30T22:40:55.739Z,16.10
2018-08-30T22:43:23.968Z,16.10
2018-08-30T22:45:52.318Z,16.10
2018-08-30T22:48:20.830Z,16.10
2018-08-30T22:50:49.182Z,16.00
2018-08-30T22:53:17.582Z,15.90
2018-08-30T22:55:45.938Z,15.90
2018-08-30T22:58:15.011Z,15.90
2018-08-30T23:00:43.574Z,15.80
2018-08-30T23:03:11.925Z,15.70
2018-08-30T23:05:40.293Z,15.70
2018-08-30T23:08:08.641Z,15.60
2018-08-30T23:10:37.059Z,15.60
2018-08-30T23:13:06.761Z,15.60
2018-08-30T23:15:35.074Z,15.60
2018-08-30T23:18:03.442Z,15.60
2018-08-30T23:20:31.898Z,15.70
2018-08-30T23:23:00.486Z,15.70
2018-08-30T23:25:28.898Z,15.60
2018-08-30T23:27:57.711Z,15.60
2018-08-30T23:30:26.369Z,15.70
2018-08-30T23:37:47.565Z,15.60
2018-08-30T23:40:17.648Z,15.60
2018-08-30T23:42:46.087Z,15.60
2018-08-30T23:45:16.166Z,15.60
2018-08-30T23:47:44.499Z,15.60
2018-08-30T23:50:14.472Z,15.60
2018-08-30T23:52:42.859Z,15.60
2018-08-30T23:55:15.447Z,15.50
2018-08-30T23:57:55.438Z,15.60
